sensor_id;sensor_type;location;lat;lon;timestamp;temperature;humidity
23691;DHT22;43867;50.836;4.364;2022-08-11T00:00:42;23.00;55.40
23691;DHT22;43867;50.836;4.364;2022-08-11T00:03:09;22.90;55.40
23691;DHT22;43867;50.836;4.364;2022-08-11T00:05:45;22.90;55.80
23691;DHT22;43867;50.836;4.364;2022-08-11T00:08:19;22.90;55.70
23691;DHT22;43867;50.836;4.364;2022-08-11T00:10:50;22.90;56.00
23691;DHT22;43867;50.836;4.364;2022-08-11T00:13:16;22.90;55.90
23691;DHT22;43867;50.836;4.364;2022-08-11T00:15:43;22.90;56.20
23691;DHT22;43867;50.836;4.364;2022-08-11T00:18:09;22.60;56.70
23691;DHT22;43867;50.836;4.364;2022-08-11T00:20:36;22.60;56.90
23691;DHT22;43867;50.836;4.364;2022-08-11T00:23:08;22.70;56.80
23691;DHT22;43867;50.836;4.364;2022-08-11T00:25:39;22.70;57.00
23691;DHT22;43867;50.836;4.364;2022-08-11T00:30:51;22.70;57.20
23691;DHT22;43867;50.836;4.364;2022-08-11T00:33:17;22.60;57.40
23691;DHT22;43867;50.836;4.364;2022-08-11T00:35:43;22.70;57.50
23691;DHT22;43867;50.836;4.364;2022-08-11T00:38:09;22.50;57.80
23691;DHT22;43867;50.836;4.364;2022-08-11T00:40:38;22.50;58.10
23691;DHT22;43867;50.836;4.364;2022-08-11T00:43:15;22.60;57.80
23691;DHT22;43867;50.836;4.364;2022-08-11T00:45:46;22.40;58.20
23691;DHT22;43867;50.836;4.364;2022-08-11T00:48:35;22.30;58.70
23691;DHT22;43867;50.836;4.364;2022-08-11T00:51:10;22.50;58.60
23691;DHT22;43867;50.836;4.364;2022-08-11T01:01:40;22.20;60.00
23691;DHT22;43867;50.836;4.364;2022-08-11T01:04:36;22.10;60.30
23691;DHT22;43867;50.836;4.364;2022-08-11T01:20:14;22.00;62.70
23691;DHT22;43867;50.836;4.364;2022-08-11T01:36:40;21.70;66.10
23691;DHT22;43867;50.836;4.364;2022-08-11T01:50:27;21.50;69.80
23691;DHT22;43867;50.836;4.364;2022-08-11T01:55:26;21.40;70.70
23691;DHT22;43867;50.836;4.364;2022-08-11T01:58:04;21.50;70.90
23691;DHT22;43867;50.836;4.364;2022-08-11T02:00:34;21.40;71.90
23691;DHT22;43867;50.836;4.364;2022-08-11T02:03:14;21.40;72.40
23691;DHT22;43867;50.836;4.364;2022-08-11T02:11:16;21.50;72.70
23691;DHT22;43867;50.836;4.364;2022-08-11T02:13:56;21.50;72.80
23691;DHT22;43867;50.836;4.364;2022-08-11T02:22:00;21.20;75.80
23691;DHT22;43867;50.836;4.364;2022-08-11T02:27:39;20.90;79.50
23691;DHT22;43867;50.836;4.364;2022-08-11T02:30:13;20.80;81.30
23691;DHT22;43867;50.836;4.364;2022-08-11T02:35:33;20.80;83.40
23691;DHT22;43867;50.836;4.364;2022-08-11T02:45:54;20.70;86.10
23691;DHT22;43867;50.836;4.364;2022-08-11T02:48:29;20.80;85.70
23691;DHT22;43867;50.836;4.364;2022-08-11T02:56:44;20.60;88.80
23691;DHT22;43867;50.836;4.364;2022-08-11T03:02:15;20.80;88.30
23691;DHT22;43867;50.836;4.364;2022-08-11T03:07:20;21.10;85.90
23691;DHT22;43867;50.836;4.364;2022-08-11T03:09:49;21.00;87.10
23691;DHT22;43867;50.836;4.364;2022-08-11T03:12:28;20.70;89.60
23691;DHT22;43867;50.836;4.364;2022-08-11T03:15:23;20.80;89.70
23691;DHT22;43867;50.836;4.364;2022-08-11T03:20:48;20.80;90.00
23691;DHT22;43867;50.836;4.364;2022-08-11T03:23:24;20.70;90.80
23691;DHT22;43867;50.836;4.364;2022-08-11T03:28:59;20.80;90.40
23691;DHT22;43867;50.836;4.364;2022-08-11T03:31:31;20.70;90.80
23691;DHT22;43867;50.836;4.364;2022-08-11T03:34:00;20.60;91.50
23691;DHT22;43867;50.836;4.364;2022-08-11T03:36:50;20.40;92.60
23691;DHT22;43867;50.836;4.364;2022-08-11T03:41:55;20.20;94.10
23691;DHT22;43867;50.836;4.364;2022-08-11T03:47:00;20.10;95.30
23691;DHT22;43867;50.836;4.364;2022-08-11T03:52:57;20.30;94.90
23691;DHT22;43867;50.836;4.364;2022-08-11T04:00:28;20.40;94.50
23691;DHT22;43867;50.836;4.364;2022-08-11T04:18:49;20.10;96.10
23691;DHT22;43867;50.836;4.364;2022-08-11T04:26:29;19.90;97.30
23691;DHT22;43867;50.836;4.364;2022-08-11T04:31:37;19.70;98.20
23691;DHT22;43867;50.836;4.364;2022-08-11T04:36:56;19.80;98.20
23691;DHT22;43867;50.836;4.364;2022-08-11T04:39:46;19.80;98.00
23691;DHT22;43867;50.836;4.364;2022-08-11T04:47:53;20.20;96.80
23691;DHT22;43867;50.836;4.364;2022-08-11T04:50:52;20.20;96.90
23691;DHT22;43867;50.836;4.364;2022-08-11T04:56:22;20.20;96.70
23691;DHT22;43867;50.836;4.364;2022-08-11T04:59:27;20.20;96.90
23691;DHT22;43867;50.836;4.364;2022-08-11T05:10:28;20.10;97.10
23691;DHT22;43867;50.836;4.364;2022-08-11T05:12:59;20.20;97.30
23691;DHT22;43867;50.836;4.364;2022-08-11T05:15:52;20.10;97.30
23691;DHT22;43867;50.836;4.364;2022-08-11T05:18:40;20.10;97.60
23691;DHT22;43867;50.836;4.364;2022-08-11T05:21:28;20.10;97.80
23691;DHT22;43867;50.836;4.364;2022-08-11T05:24:41;20.10;97.70
23691;DHT22;43867;50.836;4.364;2022-08-11T05:27:19;20.10;97.80
23691;DHT22;43867;50.836;4.364;2022-08-11T05:30:06;20.50;96.80
23691;DHT22;43867;50.836;4.364;2022-08-11T05:33:02;20.50;96.70
23691;DHT22;43867;50.836;4.364;2022-08-11T05:35:48;20.50;96.40
23691;DHT22;43867;50.836;4.364;2022-08-11T05:38:18;20.30;96.90
23691;DHT22;43867;50.836;4.364;2022-08-11T05:41:03;20.50;96.70
23691;DHT22;43867;50.836;4.364;2022-08-11T05:43:49;20.40;96.60
23691;DHT22;43867;50.836;4.364;2022-08-11T05:46:41;20.50;96.70
23691;DHT22;43867;50.836;4.364;2022-08-11T05:49:28;20.60;96.40
23691;DHT22;43867;50.836;4.364;2022-08-11T05:52:13;20.60;96.50
23691;DHT22;43867;50.836;4.364;2022-08-11T05:55:04;20.70;96.20
23691;DHT22;43867;50.836;4.364;2022-08-11T05:57:48;20.80;96.10
23691;DHT22;43867;50.836;4.364;2022-08-11T06:00:14;20.80;95.70
23691;DHT22;43867;50.836;4.364;2022-08-11T06:02:43;20.80;95.70
23691;DHT22;43867;50.836;4.364;2022-08-11T06:05:11;21.00;95.10
23691;DHT22;43867;50.836;4.364;2022-08-11T06:07:38;21.00;94.90
23691;DHT22;43867;50.836;4.364;2022-08-11T06:10:04;21.10;94.60
23691;DHT22;43867;50.836;4.364;2022-08-11T06:12:31;21.30;94.20
23691;DHT22;43867;50.836;4.364;2022-08-11T06:15:03;21.40;93.70
23691;DHT22;43867;50.836;4.364;2022-08-11T06:17:30;21.60;92.90
23691;DHT22;43867;50.836;4.364;2022-08-11T06:19:58;21.60;92.70
23691;DHT22;43867;50.836;4.364;2022-08-11T06:22:23;21.90;92.10
23691;DHT22;43867;50.836;4.364;2022-08-11T06:24:52;22.10;91.00
23691;DHT22;43867;50.836;4.364;2022-08-11T06:27:20;22.50;90.20
23691;DHT22;43867;50.836;4.364;2022-08-11T06:29:49;22.70;88.00
23691;DHT22;43867;50.836;4.364;2022-08-11T06:32:15;22.90;85.30
23691;DHT22;43867;50.836;4.364;2022-08-11T06:37:34;22.90;82.50
23691;DHT22;43867;50.836;4.364;2022-08-11T06:40:10;23.00;82.20
23691;DHT22;43867;50.836;4.364;2022-08-11T06:45:15;23.80;77.90
23691;DHT22;43867;50.836;4.364;2022-08-11T06:47:44;24.10;75.00
23691;DHT22;43867;50.836;4.364;2022-08-11T06:50:10;24.40;73.60
23691;DHT22;43867;50.836;4.364;2022-08-11T06:52:58;24.50;70.20
23691;DHT22;43867;50.836;4.364;2022-08-11T06:55:25;24.60;68.00
23691;DHT22;43867;50.836;4.364;2022-08-11T06:58:15;24.50;68.10
23691;DHT22;43867;50.836;4.364;2022-08-11T07:01:02;24.60;67.90
23691;DHT22;43867;50.836;4.364;2022-08-11T07:03:31;24.80;66.50
23691;DHT22;43867;50.836;4.364;2022-08-11T07:06:01;25.10;64.40
23691;DHT22;43867;50.836;4.364;2022-08-11T07:14:35;25.10;60.00
23691;DHT22;43867;50.836;4.364;2022-08-11T07:17:23;25.00;59.80
23691;DHT22;43867;50.836;4.364;2022-08-11T07:19:54;25.20;60.20
23691;DHT22;43867;50.836;4.364;2022-08-11T07:22:39;25.50;58.70
23691;DHT22;43867;50.836;4.364;2022-08-11T07:25:35;26.00;57.70
23691;DHT22;43867;50.836;4.364;2022-08-11T07:28:22;26.20;56.20
23691;DHT22;43867;50.836;4.364;2022-08-11T07:31:08;26.30;56.10
23691;DHT22;43867;50.836;4.364;2022-08-11T07:33:50;26.50;55.20
23691;DHT22;43867;50.836;4.364;2022-08-11T07:36:16;27.00;54.40
23691;DHT22;43867;50.836;4.364;2022-08-11T07:38:43;26.60;53.70
23691;DHT22;43867;50.836;4.364;2022-08-11T07:41:11;26.40;54.10
23691;DHT22;43867;50.836;4.364;2022-08-11T07:43:38;26.60;54.30
23691;DHT22;43867;50.836;4.364;2022-08-11T07:46:04;27.30;53.10
23691;DHT22;43867;50.836;4.364;2022-08-11T07:48:48;27.50;51.40
23691;DHT22;43867;50.836;4.364;2022-08-11T07:51:32;27.70;50.70
23691;DHT22;43867;50.836;4.364;2022-08-11T07:54:17;27.30;50.70
23691;DHT22;43867;50.836;4.364;2022-08-11T07:56:44;27.60;50.60
23691;DHT22;43867;50.836;4.364;2022-08-11T07:59:10;27.50;50.10
23691;DHT22;43867;50.836;4.364;2022-08-11T08:01:54;27.70;50.70
23691;DHT22;43867;50.836;4.364;2022-08-11T08:04:39;27.70;49.60
23691;DHT22;43867;50.836;4.364;2022-08-11T08:07:23;27.30;50.00
23691;DHT22;43867;50.836;4.364;2022-08-11T08:10:07;27.60;50.20
23691;DHT22;43867;50.836;4.364;2022-08-11T08:12:55;28.30;49.20
23691;DHT22;43867;50.836;4.364;2022-08-11T08:15:40;28.60;47.40
23691;DHT22;43867;50.836;4.364;2022-08-11T08:18:25;28.50;48.20
23691;DHT22;43867;50.836;4.364;2022-08-11T08:20:51;28.50;47.50
23691;DHT22;43867;50.836;4.364;2022-08-11T08:23:19;28.80;46.60
23691;DHT22;43867;50.836;4.364;2022-08-11T08:25:57;29.10;45.30
23691;DHT22;43867;50.836;4.364;2022-08-11T08:28:25;28.40;45.20
23691;DHT22;43867;50.836;4.364;2022-08-11T08:30:51;28.00;45.70
23691;DHT22;43867;50.836;4.364;2022-08-11T08:33:22;28.70;45.40
23691;DHT22;43867;50.836;4.364;2022-08-11T08:35:51;29.40;43.90
23691;DHT22;43867;50.836;4.364;2022-08-11T08:38:16;29.60;44.00
23691;DHT22;43867;50.836;4.364;2022-08-11T08:40:44;30.10;43.70
23691;DHT22;43867;50.836;4.364;2022-08-11T08:43:12;30.40;41.60
23691;DHT22;43867;50.836;4.364;2022-08-11T08:45:39;30.30;41.80
23691;DHT22;43867;50.836;4.364;2022-08-11T08:48:10;30.30;42.10
23691;DHT22;43867;50.836;4.364;2022-08-11T08:50:39;29.80;42.00
23691;DHT22;43867;50.836;4.364;2022-08-11T08:53:28;29.50;42.70
23691;DHT22;43867;50.836;4.364;2022-08-11T08:55:57;29.10;42.40
23691;DHT22;43867;50.836;4.364;2022-08-11T08:58:23;29.20;41.80
23691;DHT22;43867;50.836;4.364;2022-08-11T09:00:51;29.60;41.30
23691;DHT22;43867;50.836;4.364;2022-08-11T09:03:17;30.00;41.00
23691;DHT22;43867;50.836;4.364;2022-08-11T09:05:44;30.10;40.30
23691;DHT22;43867;50.836;4.364;2022-08-11T09:08:10;30.10;40.10
23691;DHT22;43867;50.836;4.364;2022-08-11T09:10:37;30.00;40.20
23691;DHT22;43867;50.836;4.364;2022-08-11T09:13:05;30.10;40.20
23691;DHT22;43867;50.836;4.364;2022-08-11T09:15:33;30.10;40.20
23691;DHT22;43867;50.836;4.364;2022-08-11T09:17:59;29.80;39.20
23691;DHT22;43867;50.836;4.364;2022-08-11T09:20:34;29.20;39.80
23691;DHT22;43867;50.836;4.364;2022-08-11T09:23:03;29.30;40.20
23691;DHT22;43867;50.836;4.364;2022-08-11T09:25:48;29.60;40.10
23691;DHT22;43867;50.836;4.364;2022-08-11T09:28:33;29.80;40.00
23691;DHT22;43867;50.836;4.364;2022-08-11T09:31:01;30.20;39.30
23691;DHT22;43867;50.836;4.364;2022-08-11T09:33:27;29.60;39.50
23691;DHT22;43867;50.836;4.364;2022-08-11T09:35:53;29.40;40.40
23691;DHT22;43867;50.836;4.364;2022-08-11T09:38:20;29.60;40.40
23691;DHT22;43867;50.836;4.364;2022-08-11T09:41:06;30.20;39.70
23691;DHT22;43867;50.836;4.364;2022-08-11T09:43:39;29.80;39.20
23691;DHT22;43867;50.836;4.364;2022-08-11T09:46:25;29.80;40.00
23691;DHT22;43867;50.836;4.364;2022-08-11T09:48:54;30.30;38.80
23691;DHT22;43867;50.836;4.364;2022-08-11T09:51:21;29.80;39.50
23691;DHT22;43867;50.836;4.364;2022-08-11T09:53:47;29.90;39.60
23691;DHT22;43867;50.836;4.364;2022-08-11T09:56:17;30.00;39.00
23691;DHT22;43867;50.836;4.364;2022-08-11T09:59:02;30.20;38.90
23691;DHT22;43867;50.836;4.364;2022-08-11T10:01:30;30.60;39.10
23691;DHT22;43867;50.836;4.364;2022-08-11T10:04:00;30.70;38.70
23691;DHT22;43867;50.836;4.364;2022-08-11T10:06:28;30.70;38.00
23691;DHT22;43867;50.836;4.364;2022-08-11T10:09:14;30.30;38.60
23691;DHT22;43867;50.836;4.364;2022-08-11T10:11:42;30.10;38.70
23691;DHT22;43867;50.836;4.364;2022-08-11T10:14:08;30.20;38.40
23691;DHT22;43867;50.836;4.364;2022-08-11T10:16:52;30.00;38.20
23691;DHT22;43867;50.836;4.364;2022-08-11T10:19:20;30.20;38.00
23691;DHT22;43867;50.836;4.364;2022-08-11T10:21:47;29.80;38.20
23691;DHT22;43867;50.836;4.364;2022-08-11T10:24:33;29.60;38.60
23691;DHT22;43867;50.836;4.364;2022-08-11T10:27:18;29.70;38.30
23691;DHT22;43867;50.836;4.364;2022-08-11T10:29:43;29.30;39.00
23691;DHT22;43867;50.836;4.364;2022-08-11T10:32:28;29.30;39.40
23691;DHT22;43867;50.836;4.364;2022-08-11T10:35:13;29.20;39.50
23691;DHT22;43867;50.836;4.364;2022-08-11T10:37:40;29.30;39.20
23691;DHT22;43867;50.836;4.364;2022-08-11T10:40:07;29.40;39.40
23691;DHT22;43867;50.836;4.364;2022-08-11T10:42:36;29.40;39.20
23691;DHT22;43867;50.836;4.364;2022-08-11T10:45:21;29.50;39.30
23691;DHT22;43867;50.836;4.364;2022-08-11T10:48:06;29.50;39.60
23691;DHT22;43867;50.836;4.364;2022-08-11T10:50:32;29.70;39.00
23691;DHT22;43867;50.836;4.364;2022-08-11T10:53:25;30.10;39.30
23691;DHT22;43867;50.836;4.364;2022-08-11T10:56:10;30.00;38.70
23691;DHT22;43867;50.836;4.364;2022-08-11T10:58:55;29.80;38.50
23691;DHT22;43867;50.836;4.364;2022-08-11T11:01:22;29.80;38.20
23691;DHT22;43867;50.836;4.364;2022-08-11T11:03:50;29.90;37.90
23691;DHT22;43867;50.836;4.364;2022-08-11T11:06:27;30.00;38.00
23691;DHT22;43867;50.836;4.364;2022-08-11T11:11:25;29.80;38.40
23691;DHT22;43867;50.836;4.364;2022-08-11T11:14:11;29.80;38.20
23691;DHT22;43867;50.836;4.364;2022-08-11T11:16:57;29.80;38.20
23691;DHT22;43867;50.836;4.364;2022-08-11T11:19:42;29.80;38.30
23691;DHT22;43867;50.836;4.364;2022-08-11T11:22:08;29.60;38.60
23691;DHT22;43867;50.836;4.364;2022-08-11T11:27:28;29.80;38.40
23691;DHT22;43867;50.836;4.364;2022-08-11T11:30:03;29.80;37.50
23691;DHT22;43867;50.836;4.364;2022-08-11T11:37:56;29.80;37.20
23691;DHT22;43867;50.836;4.364;2022-08-11T11:40:22;29.80;37.00
23691;DHT22;43867;50.836;4.364;2022-08-11T11:42:49;29.80;37.20
23691;DHT22;43867;50.836;4.364;2022-08-11T11:45:16;29.90;36.50
23691;DHT22;43867;50.836;4.364;2022-08-11T11:47:42;30.00;36.20
23691;DHT22;43867;50.836;4.364;2022-08-11T11:50:09;30.00;36.10
23691;DHT22;43867;50.836;4.364;2022-08-11T11:52:34;30.00;35.80
23691;DHT22;43867;50.836;4.364;2022-08-11T11:55:02;30.20;36.10
23691;DHT22;43867;50.836;4.364;2022-08-11T11:57:28;30.40;36.20
23691;DHT22;43867;50.836;4.364;2022-08-11T12:00:13;30.40;35.50
23691;DHT22;43867;50.836;4.364;2022-08-11T12:02:59;30.50;35.80
23691;DHT22;43867;50.836;4.364;2022-08-11T12:05:26;30.50;36.00
23691;DHT22;43867;50.836;4.364;2022-08-11T12:07:52;30.50;35.30
23691;DHT22;43867;50.836;4.364;2022-08-11T12:10:37;30.40;35.50
23691;DHT22;43867;50.836;4.364;2022-08-11T12:13:02;30.40;35.50
23691;DHT22;43867;50.836;4.364;2022-08-11T12:15:48;30.40;35.20
23691;DHT22;43867;50.836;4.364;2022-08-11T12:18:15;30.40;34.80
23691;DHT22;43867;50.836;4.364;2022-08-11T12:20:41;30.50;34.90
23691;DHT22;43867;50.836;4.364;2022-08-11T12:23:07;30.40;35.10
23691;DHT22;43867;50.836;4.364;2022-08-11T12:25:51;30.60;35.20
23691;DHT22;43867;50.836;4.364;2022-08-11T12:28:37;30.30;35.60
23691;DHT22;43867;50.836;4.364;2022-08-11T12:31:04;30.30;35.30
23691;DHT22;43867;50.836;4.364;2022-08-11T12:33:30;30.40;34.70
23691;DHT22;43867;50.836;4.364;2022-08-11T12:35:57;30.50;34.70
23691;DHT22;43867;50.836;4.364;2022-08-11T12:38:23;30.70;34.40
23691;DHT22;43867;50.836;4.364;2022-08-11T12:40:49;30.80;34.50
23691;DHT22;43867;50.836;4.364;2022-08-11T12:43:33;30.80;34.50
23691;DHT22;43867;50.836;4.364;2022-08-11T12:46:18;30.90;34.20
23691;DHT22;43867;50.836;4.364;2022-08-11T12:48:46;30.90;34.60
23691;DHT22;43867;50.836;4.364;2022-08-11T12:51:32;30.80;34.50
23691;DHT22;43867;50.836;4.364;2022-08-11T12:54:26;30.80;34.60
23691;DHT22;43867;50.836;4.364;2022-08-11T12:57:14;30.80;34.70
23691;DHT22;43867;50.836;4.364;2022-08-11T12:59:59;30.90;34.70
23691;DHT22;43867;50.836;4.364;2022-08-11T13:02:43;31.10;34.00
23691;DHT22;43867;50.836;4.364;2022-08-11T13:05:31;30.80;33.70
23691;DHT22;43867;50.836;4.364;2022-08-11T13:08:01;30.80;33.70
23691;DHT22;43867;50.836;4.364;2022-08-11T13:10:27;30.50;33.70
23691;DHT22;43867;50.836;4.364;2022-08-11T13:13:12;30.50;34.10
23691;DHT22;43867;50.836;4.364;2022-08-11T13:15:38;30.60;33.60
23691;DHT22;43867;50.836;4.364;2022-08-11T13:18:04;30.60;33.80
23691;DHT22;43867;50.836;4.364;2022-08-11T13:20:32;30.70;33.50
23691;DHT22;43867;50.836;4.364;2022-08-11T13:22:58;30.70;33.60
23691;DHT22;43867;50.836;4.364;2022-08-11T13:25:24;30.80;33.70
23691;DHT22;43867;50.836;4.364;2022-08-11T13:27:51;30.80;33.40
23691;DHT22;43867;50.836;4.364;2022-08-11T13:30:17;31.00;33.10
23691;DHT22;43867;50.836;4.364;2022-08-11T13:33:03;31.00;33.40
23691;DHT22;43867;50.836;4.364;2022-08-11T13:35:29;30.90;33.70
23691;DHT22;43867;50.836;4.364;2022-08-11T13:37:56;30.90;33.30
23691;DHT22;43867;50.836;4.364;2022-08-11T13:40:22;30.90;33.50
23691;DHT22;43867;50.836;4.364;2022-08-11T13:42:50;30.80;33.60
23691;DHT22;43867;50.836;4.364;2022-08-11T13:45:16;30.70;33.70
23691;DHT22;43867;50.836;4.364;2022-08-11T13:47:42;30.90;34.00
23691;DHT22;43867;50.836;4.364;2022-08-11T13:50:08;30.90;34.00
23691;DHT22;43867;50.836;4.364;2022-08-11T13:52:35;30.80;34.10
23691;DHT22;43867;50.836;4.364;2022-08-11T13:55:04;30.80;34.40
23691;DHT22;43867;50.836;4.364;2022-08-11T13:57:30;30.70;34.40
23691;DHT22;43867;50.836;4.364;2022-08-11T13:59:59;30.70;34.20
23691;DHT22;43867;50.836;4.364;2022-08-11T14:02:35;30.70;34.00
23691;DHT22;43867;50.836;4.364;2022-08-11T14:05:02;30.70;34.30
23691;DHT22;43867;50.836;4.364;2022-08-11T14:07:32;30.70;34.20
23691;DHT22;43867;50.836;4.364;2022-08-11T14:09:59;30.50;34.40
23691;DHT22;43867;50.836;4.364;2022-08-11T14:12:27;30.60;34.30
23691;DHT22;43867;50.836;4.364;2022-08-11T14:15:14;30.90;34.30
23691;DHT22;43867;50.836;4.364;2022-08-11T14:17:44;30.90;33.90
23691;DHT22;43867;50.836;4.364;2022-08-11T14:20:11;30.90;34.00
23691;DHT22;43867;50.836;4.364;2022-08-11T14:22:40;30.80;34.00
23691;DHT22;43867;50.836;4.364;2022-08-11T14:25:07;30.90;34.20
23691;DHT22;43867;50.836;4.364;2022-08-11T14:27:33;30.80;34.20
23691;DHT22;43867;50.836;4.364;2022-08-11T14:29:59;30.90;34.10
23691;DHT22;43867;50.836;4.364;2022-08-11T14:32:25;30.90;33.70
23691;DHT22;43867;50.836;4.364;2022-08-11T14:34:51;30.90;33.70
23691;DHT22;43867;50.836;4.364;2022-08-11T14:37:22;30.80;33.70
23691;DHT22;43867;50.836;4.364;2022-08-11T14:39:53;30.80;33.70
23691;DHT22;43867;50.836;4.364;2022-08-11T14:42:20;30.60;33.70
23691;DHT22;43867;50.836;4.364;2022-08-11T14:45:06;30.60;33.70
23691;DHT22;43867;50.836;4.364;2022-08-11T14:47:56;30.60;33.80
23691;DHT22;43867;50.836;4.364;2022-08-11T14:50:23;30.70;33.80
23691;DHT22;43867;50.836;4.364;2022-08-11T14:52:49;30.90;33.30
23691;DHT22;43867;50.836;4.364;2022-08-11T14:55:16;30.80;32.80
23691;DHT22;43867;50.836;4.364;2022-08-11T14:58:01;30.90;32.80
23691;DHT22;43867;50.836;4.364;2022-08-11T15:00:27;30.90;32.90
23691;DHT22;43867;50.836;4.364;2022-08-11T15:02:55;30.90;32.40
23691;DHT22;43867;50.836;4.364;2022-08-11T15:05:46;31.00;32.70
23691;DHT22;43867;50.836;4.364;2022-08-11T15:08:15;31.10;32.80
23691;DHT22;43867;50.836;4.364;2022-08-11T15:10:41;31.10;33.00
23691;DHT22;43867;50.836;4.364;2022-08-11T15:13:06;31.10;33.30
23691;DHT22;43867;50.836;4.364;2022-08-11T15:15:32;31.10;33.00
23691;DHT22;43867;50.836;4.364;2022-08-11T15:18:18;30.90;33.30
23691;DHT22;43867;50.836;4.364;2022-08-11T15:20:44;31.10;33.60
23691;DHT22;43867;50.836;4.364;2022-08-11T15:23:29;31.20;33.40
23691;DHT22;43867;50.836;4.364;2022-08-11T15:29:20;31.20;33.20
23691;DHT22;43867;50.836;4.364;2022-08-11T15:32:05;31.10;33.00
23691;DHT22;43867;50.836;4.364;2022-08-11T15:34:59;31.10;33.00
23691;DHT22;43867;50.836;4.364;2022-08-11T15:37:44;31.10;33.10
23691;DHT22;43867;50.836;4.364;2022-08-11T15:43:12;31.20;32.70
23691;DHT22;43867;50.836;4.364;2022-08-11T15:45:57;31.10;32.60
23691;DHT22;43867;50.836;4.364;2022-08-11T15:50:56;31.10;32.90
23691;DHT22;43867;50.836;4.364;2022-08-11T15:53:24;31.20;33.10
23691;DHT22;43867;50.836;4.364;2022-08-11T15:55:51;31.20;33.10
23691;DHT22;43867;50.836;4.364;2022-08-11T15:58:17;31.00;33.10
23691;DHT22;43867;50.836;4.364;2022-08-11T16:01:03;31.20;33.10
23691;DHT22;43867;50.836;4.364;2022-08-11T16:03:51;31.30;32.90
23691;DHT22;43867;50.836;4.364;2022-08-11T16:11:55;31.40;32.40
23691;DHT22;43867;50.836;4.364;2022-08-11T16:14:22;30.80;36.20
23691;DHT22;43867;50.836;4.364;2022-08-11T16:17:09;29.70;35.70
23691;DHT22;43867;50.836;4.364;2022-08-11T16:19:35;29.00;36.20
23691;DHT22;43867;50.836;4.364;2022-08-11T16:22:03;29.00;35.30
23691;DHT22;43867;50.836;4.364;2022-08-11T16:24:32;29.10;34.70
23691;DHT22;43867;50.836;4.364;2022-08-11T16:26:58;29.30;34.20
23691;DHT22;43867;50.836;4.364;2022-08-11T16:29:24;29.40;34.10
23691;DHT22;43867;50.836;4.364;2022-08-11T16:31:50;29.40;33.40
23691;DHT22;43867;50.836;4.364;2022-08-11T16:34:36;29.80;32.90
23691;DHT22;43867;50.836;4.364;2022-08-11T16:37:21;30.00;32.20
23691;DHT22;43867;50.836;4.364;2022-08-11T16:40:06;30.10;32.40
23691;DHT22;43867;50.836;4.364;2022-08-11T16:42:33;30.20;32.10
23691;DHT22;43867;50.836;4.364;2022-08-11T16:45:18;30.20;32.20
23691;DHT22;43867;50.836;4.364;2022-08-11T16:48:02;30.40;31.70
23691;DHT22;43867;50.836;4.364;2022-08-11T16:50:28;30.40;31.30
23691;DHT22;43867;50.836;4.364;2022-08-11T16:52:54;30.50;31.10
23691;DHT22;43867;50.836;4.364;2022-08-11T16:55:20;30.40;30.90
23691;DHT22;43867;50.836;4.364;2022-08-11T16:57:46;30.40;31.00
23691;DHT22;43867;50.836;4.364;2022-08-11T17:00:30;30.40;31.20
23691;DHT22;43867;50.836;4.364;2022-08-11T17:02:57;30.50;31.00
23691;DHT22;43867;50.836;4.364;2022-08-11T17:05:47;30.50;31.00
23691;DHT22;43867;50.836;4.364;2022-08-11T17:08:44;30.40;31.00
23691;DHT22;43867;50.836;4.364;2022-08-11T17:11:30;30.30;30.90
23691;DHT22;43867;50.836;4.364;2022-08-11T17:14:20;30.40;31.30
23691;DHT22;43867;50.836;4.364;2022-08-11T17:16:47;30.30;31.20
23691;DHT22;43867;50.836;4.364;2022-08-11T17:19:16;30.40;31.10
23691;DHT22;43867;50.836;4.364;2022-08-11T17:24:27;30.30;30.70
23691;DHT22;43867;50.836;4.364;2022-08-11T17:26:54;30.20;30.90
23691;DHT22;43867;50.836;4.364;2022-08-11T17:29:28;30.20;30.70
23691;DHT22;43867;50.836;4.364;2022-08-11T17:31:55;30.10;30.80
23691;DHT22;43867;50.836;4.364;2022-08-11T17:34:41;30.20;31.20
23691;DHT22;43867;50.836;4.364;2022-08-11T17:37:26;30.20;31.40
23691;DHT22;43867;50.836;4.364;2022-08-11T17:39:52;30.20;31.20
23691;DHT22;43867;50.836;4.364;2022-08-11T17:42:19;30.20;31.30
23691;DHT22;43867;50.836;4.364;2022-08-11T17:45:04;30.10;31.40
23691;DHT22;43867;50.836;4.364;2022-08-11T17:48:02;30.10;31.50
23691;DHT22;43867;50.836;4.364;2022-08-11T17:50:47;30.00;31.80
23691;DHT22;43867;50.836;4.364;2022-08-11T17:53:14;29.90;32.10
23691;DHT22;43867;50.836;4.364;2022-08-11T17:56:00;30.00;32.10
23691;DHT22;43867;50.836;4.364;2022-08-11T17:58:59;30.10;32.10
23691;DHT22;43867;50.836;4.364;2022-08-11T18:01:44;30.10;32.20
23691;DHT22;43867;50.836;4.364;2022-08-11T18:04:13;30.00;32.30
23691;DHT22;43867;50.836;4.364;2022-08-11T18:06:40;30.10;32.30
23691;DHT22;43867;50.836;4.364;2022-08-11T18:09:13;30.00;32.40
23691;DHT22;43867;50.836;4.364;2022-08-11T18:11:58;30.10;32.30
23691;DHT22;43867;50.836;4.364;2022-08-11T18:14:44;29.90;32.30
23691;DHT22;43867;50.836;4.364;2022-08-11T18:17:29;29.70;32.80
23691;DHT22;43867;50.836;4.364;2022-08-11T18:20:14;29.80;32.80
23691;DHT22;43867;50.836;4.364;2022-08-11T18:23:00;29.80;32.90
23691;DHT22;43867;50.836;4.364;2022-08-11T18:25:46;29.90;33.10
23691;DHT22;43867;50.836;4.364;2022-08-11T18:28:32;29.90;33.00
23691;DHT22;43867;50.836;4.364;2022-08-11T18:31:18;29.60;33.50
23691;DHT22;43867;50.836;4.364;2022-08-11T18:34:04;29.60;33.50
23691;DHT22;43867;50.836;4.364;2022-08-11T18:37:02;29.70;33.40
23691;DHT22;43867;50.836;4.364;2022-08-11T18:39:48;29.60;33.50
23691;DHT22;43867;50.836;4.364;2022-08-11T18:42:33;29.50;33.60
23691;DHT22;43867;50.836;4.364;2022-08-11T18:45:18;29.60;33.50
23691;DHT22;43867;50.836;4.364;2022-08-11T18:48:07;29.30;33.70
23691;DHT22;43867;50.836;4.364;2022-08-11T18:50:53;29.40;33.80
23691;DHT22;43867;50.836;4.364;2022-08-11T18:53:38;29.30;34.00
23691;DHT22;43867;50.836;4.364;2022-08-11T18:56:24;29.10;34.20
23691;DHT22;43867;50.836;4.364;2022-08-11T18:59:09;29.20;34.40
23691;DHT22;43867;50.836;4.364;2022-08-11T19:01:54;29.10;34.70
23691;DHT22;43867;50.836;4.364;2022-08-11T19:04:39;29.00;34.70
23691;DHT22;43867;50.836;4.364;2022-08-11T19:07:24;29.00;34.90
23691;DHT22;43867;50.836;4.364;2022-08-11T19:10:08;28.90;35.10
23691;DHT22;43867;50.836;4.364;2022-08-11T19:12:53;28.80;35.40
23691;DHT22;43867;50.836;4.364;2022-08-11T19:15:39;28.70;35.60
23691;DHT22;43867;50.836;4.364;2022-08-11T19:18:25;28.80;35.80
23691;DHT22;43867;50.836;4.364;2022-08-11T19:21:09;28.60;35.90
23691;DHT22;43867;50.836;4.364;2022-08-11T19:23:55;28.50;36.00
23691;DHT22;43867;50.836;4.364;2022-08-11T19:26:40;28.50;36.10
23691;DHT22;43867;50.836;4.364;2022-08-11T19:29:27;28.40;36.30